Terminal Aerodrome Forecast
Issued by NWS

Home | Current Version | Previous Version | Text Only | Print | Product List | Glossary On
Versions: 1 2 3 4 5 6 7 8 9 10 11 12 13 14 15 16 17 18 19 20 21 22 23 24
000
FTUS43 KGRB 302011 AAA
TAFAUW
TAF AMD
KAUW 302011Z 3020/3118 31007KT P6SM SCT050 BKN200
      TEMPO 3020/3023 BKN050
     FM302300 32008KT P6SM SCT050 BKN200
     FM310200 35005KT P6SM SCT200
     FM310900 35003KT P6SM SKC
     FM311500 34007KT P6SM FEW040=

USA.gov is the U.S. government's official web portal to all federal, state and local government web resources and services.